Terminal Aerodrome Forecast
Issued by NWS

Current Version | Previous Version | Text Only | Print | Product List | Glossary On
Versions: 1 2 3 4 5 6 7 8 9 10 11 12 13 14 15 16 17 18 19 20 21
939
FTUS44 KMAF 071414 AAA
TAFCNM
TAF AMD
KCNM 071414Z 0714/0812 16006KT P6SM SCT003 BKN120
      TEMPO 0714/0716 2SM BR OVC002
     FM071600 19008KT P6SM BKN140
     FM080400 01010KT P6SM OVC035
     FM080900 01014G24KT P6SM OVC023
     FM081100 36013G23KT 6SM BR OVC010=

USA.gov is the U.S. government's official web portal to all federal, state and local government web resources and services.